Owings, Maryland
Current Conditions -  °F | °C
As of 7:58 PM on Monday 26 Jan 2015 (Local Time) from KADW Reporting Station
Light Snow Light Snow  
Wind Chill: 23°   Ceiling: 900
Heat Index: 30°   Visibility: 10mi
Dew Point: 28°   Wind: 7mph
Humidity: 92%   Direction: 350°N
Pressure: 29.72"   Gusts: NA
Location:  38.72°N, 76.6°W
Report Text: KADW 270058Z AUTO 35006KT 10SM -SN OVC009 M01/M02 A2972 RMK AO2 RAB2356E0029FZDZE2356UPB0029E0049SNB0049 SLP074 P0000 T10131024 $
Loading
Personal Weather Stations






























Interactive Weather Map New forecast layout! Learn more

10-Day Weather Forecast

Advertisements
Track Severe Weather on mobile